Meteo Giornale » Osservazioni meteo Kazakhstan » Zhezkazgan
ore: 19:30 - Osservazioni Meteo Zhezkazgan
Lat. 47° 42' N Lon. 67° 44' E Alt. 381 metri s.l.m.
18 °C
Sereno
Temp. 24 Ore
6 °C
23 °C
Ovest/Nord-Ovest
18 Km/h
Dew point -3 °C
Umidità 23 %
Visibilità 10 Km
Il sole sorge alle ore 05:47
Il sole tramonta alle ore 19:10
| Data e Ora | Cielo e Fenomeni | T °C | DP °C | Um. % | Pres. hPa | Vis. km | Vento km/h | |
|---|---|---|---|---|---|---|---|---|
| Oggi h: 19:30 | Sereno | 18 | -3 | 23 | 1020 | 10 | O/NO 18 | |
| Oggi h: 19:00 | Sereno | 20 | -3 | 20 | 1020 | 10 | NO 18 | |
| Oggi h: 18:30 | Sereno | 20 | -4 | 19 | 1020 | 10 | NO 21.6 | |
| Oggi h: 18:00 | Sereno | 21 | -3 | 19 | 1019 | 10 | O/NO 21.6 | |
| Oggi h: 17:30 | Sereno | 21 | -3 | 19 | 1019 | 10 | O/NO 21.6 | |
| Oggi h: 17:00 | Sereno | 21 | -4 | 18 | 1019 | 10 | O/NO 21.6 | |
| Oggi h: 16:30 | Sereno | 22 | -5 | 15 | 1020 | 10 | NO 21.6 | |
| Oggi h: 16:00 | Sereno | 22 | -5 | 15 | 1019 | 10 | NO 25.2 | |
| Oggi h: 15:30 | Sereno | 22 | -6 | 14 | 1019 | 10 | O/NO 21.6 | |
| Oggi h: 15:07 | Sereno | 22 | -6 | 14 | 1019 | 10 | O/NO 21.6 | |
| Oggi h: 15:00 | Sereno | 23 | -6 | 13 | 1019 | 10 | O/NO 21.6 | |
| Oggi h: 14:46 | Sereno | 22 | -6 | 14 | 1019 | 10 | O/NO 14.4 | |
| Oggi h: 14:42 | Sereno | 21 | -6 | 15 | 1019 | 10 | O 14.4 | |
| Oggi h: 14:30 | Sereno | 21 | -5 | 16 | 1020 | 10 | O/NO 21.6 | |
| Oggi h: 14:23 | Sereno | 22 | -5 | 15 | 1020 | 10 | O/NO 18 | |
| Oggi h: 14:10 | Sereno | 21 | -5 | 16 | 1020 | 10 | O 21.6 | |
| Oggi h: 14:00 | Sereno | 21 | -5 | 16 | 1020 | 10 | O/NO 18 | |
| Oggi h: 13:35 | Sereno | 21 | -5 | 16 | 1020 | 10 | O/NO 14.4 | |
| Oggi h: 13:30 | Sereno | 21 | -4 | 18 | 1020 | 10 | O 18 | |
| Oggi h: 13:00 | Sereno | 20 | -5 | 18 | 1021 | 10 | O/SO 18 | |
| Oggi h: 12:30 | Sereno | 19 | -5 | 19 | 1021 | 10 | O/NO 10.8 | |
| Oggi h: 12:00 | Sereno | 19 | -4 | 20 | 1021 | 10 | O 18 | |
| Oggi h: 11:30 | Sereno | 18 | -5 | 20 | 1021 | 10 | N 7.2 | |
| Oggi h: 11:00 | Sereno | 18 | -4 | 22 | 1022 | 10 | SO 10.8 | |
| Oggi h: 10:30 | Sereno | 17 | -5 | 21 | 1022 | 10 | O 14.4 | |
| Oggi h: 10:00 | Sereno | 17 | -4 | 23 | 1022 | 10 | SO 10.8 | |
| Oggi h: 09:30 | Sereno | 16 | -5 | 23 | 1022 | 10 | SO 14.4 | |
| Oggi h: 09:00 | Sereno | 15 | -4 | 26 | 1022 | 10 | SO 14.4 | |
| Oggi h: 08:30 | Sereno | 15 | -5 | 24 | 1022 | 10 | S/SO 14.4 | |
| Oggi h: 08:00 | Sereno | 13 | -5 | 28 | 1022 | 10 | S 14.4 | |
| Oggi h: 07:30 | Sereno | 11 | -6 | 29 | 1022 | 10 | S 10.8 | |
| Oggi h: 07:00 | Sereno | 9 | -7 | 31 | 1022 | 10 | N 7.2 | |
| Oggi h: 06:30 | Sereno | 8 | -7 | 33 | 1022 | 10 | N 7.2 | |
| Oggi h: 06:00 | Sereno | 6 | -7 | 38 | 1022 | 10 | N 7.2 | |
| Ieri h: 21:00 | Sereno | 11 | -8 | 25 | 1020 | 10 | N/NE 14.4 | |



